帯広空港の過去48時間の天気

帯広空港 (Obihiro)

現在時刻: 1/22 03:12 JST (1/21 18:12 UTC) 以下の時間は現地時間です。

過去48時間のMETAR気象情報
時間 風向 風速(m/s) 視程 気温(℃) 湿度(%) 気圧(hPa) 天気現象
21 20:00 西北西 4 10km以上 -9 41 1011
21 19:00 西北西 4 10km以上 -8 41 1010
21 18:00 西北西 3 10km以上 -7 35 1010
21 17:00 西北西 2 10km以上 -6 38 1009
21 16:00 不定 1 10km以上 -5 42 1008
21 15:00 不定 1 10km以上 -5 38 1008
21 14:00 4 10km以上 -4 42 1008
21 13:00 5 10km以上 -5 49 1008
21 12:00 6 10km以上 -4 42 1008
21 11:00 5 10km以上 -5 45 1009
21 10:00 5 10km以上 -5 49 1010
21 09:00 東北東 2 10km以上 -6 53 1009
21 08:00 不定 1 10km以上 -7 57 1010
21 07:40 不定 2 10km以上 -7 68 1010
20 20:45 3 1,000m -7 93 1009 弱いしゅう雪
20 20:28 北北西 3 1,000m -7 93 1009 弱いしゅう雪
20 20:00 不定 1 1,400m -7 86 1010 弱いしゅう雪
20 19:46 不定 1 2,300m -7 86 1010 弱いしゅう雪
20 19:40 不定 1 4,900m -7 79 1010 弱いしゅう雪
20 19:00 不定 1 6,000m -7 79 1010 弱いしゅう雪
20 18:00 静穏 0 10km以上 -7 73 1011 弱いしゅう雪
20 17:00 不定 1 10km以上 -7 73 1011
20 16:00 不定 1 10km以上 -8 73 1012
20 15:00 北北西 2 10km以上 -7 68 1012
20 14:00 3 10km以上 -7 62 1012
20 13:00 2 10km以上 -8 62 1013
20 12:00 2 10km以上 -9 67 1014
20 11:00 静穏 0 10km以上 -9 62 1015
20 10:00 不定 1 10km以上 -12 72 1016
20 09:00 北西 2 10km以上 -14 78 1016
20 08:00 静穏 0 10km以上 -18 77 1016
20 07:40 不定 1 10km以上 -15 85 1016
RJCB 211100Z 29007G17KT 240V340 9999 FEW040 M09/M20 Q1011
RJCB 211000Z 29007G19KT 210V340 9999 FEW040 M08/M19 Q1010
RJCB 210900Z 29005KT 230V340 9999 FEW040 M07/M20 Q1010
RJCB 210800Z 30003KT 200V350 9999 FEW040 M06/M18 Q1009
RJCB 210700Z VRB01KT 9999 FEW040 M05/M16 Q1008
RJCB 210600Z VRB02KT 9999 FEW050 M05/M17 Q1008
RJCB 210500Z 01007KT 9999 FEW050 M04/M15 Q1008
RJCB 210400Z 36010KT 9999 FEW050 M05/M14 Q1008
RJCB 210300Z 35012KT 9999 FEW040 M04/M15 Q1008
RJCB 210200Z 35010KT 9999 FEW040 M05/M15 Q1009
RJCB 210100Z 01010KT 9999 FEW040 M05/M14 Q1010
RJCB 210000Z 06004KT 9999 FEW040 M06/M14 Q1009
RJCB 202300Z VRB02KT 9999 FEW040 M07/M14 Q1010
RJCB 202240Z VRB03KT 9999 FEW040 M07/M12 Q1010 RMK 1CU040 A2982
RJCB 201145Z 35005KT 1000 R35/P1800N -SHSN FEW003 SCT005 BKN014 M07/M08 Q1009 RMK 1ST003 4ST005 7ST014 A2981
RJCB 201128Z 33005KT 1000 R35/1800D -SHSN FEW003 SCT005 BKN010 M07/M08 Q1009 RMK 1ST003 4ST005 7ST010 A2982
RJCB 201100Z VRB02KT 1400 R35/P1800N -SHSN FEW004 BKN010 M07/M09 Q1010
RJCB 201046Z VRB02KT 2300 -SHSN FEW005 BKN010 M07/M09 Q1010 RMK 1ST005 7ST010 A2984
RJCB 201040Z VRB01KT 4900 -SHSN FEW005 BKN010 M07/M10 Q1010 RMK 1ST005 7ST010 A2984
RJCB 201000Z VRB01KT 6000 -SHSN FEW012 BKN015 BKN020 M07/M10 Q1010
RJCB 200900Z 00000KT 9999 -SHSN FEW020 BKN060 M07/M11 Q1011
RJCB 200800Z VRB01KT 9999 FEW040 BKN060 M07/M11 Q1011
RJCB 200700Z VRB02KT 9999 FEW040 BKN070 M08/M12 Q1012
RJCB 200600Z 34003KT 9999 FEW040 SCT070 BKN100 M07/M12 Q1012
RJCB 200500Z 35005KT 9999 FEW040 BKN080 M07/M13 Q1012
RJCB 200400Z 35003KT 9999 FEW040 SCT080 BKN/// M08/M14 Q1013
RJCB 200300Z 35004KT 9999 FEW040 SCT120 M09/M14 Q1014
RJCB 200200Z 00000KT 9999 FEW040 M09/M15 Q1015
RJCB 200100Z VRB01KT CAVOK M12/M16 Q1016
RJCB 200000Z 32003KT 270V340 CAVOK M14/M17 Q1016
RJCB 192300Z 00000KT 9999 FEW050 M18/M21 Q1016
RJCB 192240Z VRB01KT 9999 FEW050 M15/M17 Q1016 RMK 1CU050 A3001